sensor_id;sensor_type;location;lat;lon;timestamp;pressure;altitude;pressure_sealevel;temperature;humidity
72857;BME280;61360;52.134;4.494;2022-08-04T00:00:26;101380.50;;;20.92;72.33
72857;BME280;61360;52.134;4.494;2022-08-04T00:03:18;101374.41;;;20.90;71.96
72857;BME280;61360;52.134;4.494;2022-08-04T00:08:43;101373.06;;;20.99;71.99
72857;BME280;61360;52.134;4.494;2022-08-04T00:11:19;101383.53;;;21.03;71.70
72857;BME280;61360;52.134;4.494;2022-08-04T00:13:53;101375.88;;;20.96;71.31
72857;BME280;61360;52.134;4.494;2022-08-04T00:16:36;101376.66;;;20.80;72.39
72857;BME280;61360;52.134;4.494;2022-08-04T00:19:10;101367.28;;;20.71;73.09
72857;BME280;61360;52.134;4.494;2022-08-04T00:21:46;101366.22;;;20.76;73.24
72857;BME280;61360;52.134;4.494;2022-08-04T00:24:21;101370.44;;;20.80;73.03
72857;BME280;61360;52.134;4.494;2022-08-04T00:26:48;101365.03;;;20.81;72.55
72857;BME280;61360;52.134;4.494;2022-08-04T00:29:20;101363.63;;;20.74;73.07
72857;BME280;61360;52.134;4.494;2022-08-04T00:31:48;101367.78;;;20.80;73.03
72857;BME280;61360;52.134;4.494;2022-08-04T00:34:15;101368.00;;;20.75;72.96
72857;BME280;61360;52.134;4.494;2022-08-04T00:36:43;101370.59;;;20.77;72.87
72857;BME280;61360;52.134;4.494;2022-08-04T00:39:12;101360.69;;;20.79;72.49
72857;BME280;61360;52.134;4.494;2022-08-04T01:00:15;101374.25;;;20.57;73.53
72857;BME280;61360;52.134;4.494;2022-08-04T01:02:57;101373.97;;;20.63;72.83
72857;BME280;61360;52.134;4.494;2022-08-04T01:20:08;101359.19;;;20.36;74.21
72857;BME280;61360;52.134;4.494;2022-08-04T01:26:09;101361.34;;;20.28;74.67
72857;BME280;61360;52.134;4.494;2022-08-04T01:29:12;101355.94;;;20.30;74.79
72857;BME280;61360;52.134;4.494;2022-08-04T01:35:04;101348.66;;;20.33;74.32
72857;BME280;61360;52.134;4.494;2022-08-04T01:38:00;101344.25;;;20.32;73.60
72857;BME280;61360;52.134;4.494;2022-08-04T01:40:41;101343.91;;;20.21;74.01
72857;BME280;61360;52.134;4.494;2022-08-04T01:43:12;101344.84;;;20.20;73.84
72857;BME280;61360;52.134;4.494;2022-08-04T01:45:40;101350.97;;;20.22;74.04
72857;BME280;61360;52.134;4.494;2022-08-04T01:48:08;101342.03;;;20.23;73.94
72857;BME280;61360;52.134;4.494;2022-08-04T01:50:38;101336.47;;;20.28;74.40
72857;BME280;61360;52.134;4.494;2022-08-04T01:53:10;101340.00;;;20.28;74.12
72857;BME280;61360;52.134;4.494;2022-08-04T01:55:38;101345.19;;;20.31;73.99
72857;BME280;61360;52.134;4.494;2022-08-04T01:58:06;101347.00;;;20.31;73.72
72857;BME280;61360;52.134;4.494;2022-08-04T02:00:34;101341.00;;;20.26;73.72
72857;BME280;61360;52.134;4.494;2022-08-04T02:03:08;101341.38;;;20.18;74.43
72857;BME280;61360;52.134;4.494;2022-08-04T02:05:34;101342.38;;;20.15;74.43
72857;BME280;61360;52.134;4.494;2022-08-04T02:08:20;101332.59;;;20.16;74.44
72857;BME280;61360;52.134;4.494;2022-08-04T02:11:19;101328.56;;;20.07;76.08
72857;BME280;61360;52.134;4.494;2022-08-04T02:16:46;101324.72;;;20.13;74.92
72857;BME280;61360;52.134;4.494;2022-08-04T02:19:29;101323.25;;;20.07;74.96
72857;BME280;61360;52.134;4.494;2022-08-04T02:22:09;101324.38;;;20.02;75.03
72857;BME280;61360;52.134;4.494;2022-08-04T02:24:48;101320.13;;;19.97;75.63
72857;BME280;61360;52.134;4.494;2022-08-04T02:27:37;101319.41;;;19.94;76.80
72857;BME280;61360;52.134;4.494;2022-08-04T02:30:12;101316.69;;;19.95;75.62
72857;BME280;61360;52.134;4.494;2022-08-04T02:32:40;101321.06;;;19.96;75.19
72857;BME280;61360;52.134;4.494;2022-08-04T02:35:32;101321.88;;;19.98;75.17
72857;BME280;61360;52.134;4.494;2022-08-04T02:38:19;101317.47;;;19.97;75.65
72857;BME280;61360;52.134;4.494;2022-08-04T02:40:50;101313.22;;;19.93;75.70
72857;BME280;61360;52.134;4.494;2022-08-04T02:43:23;101314.00;;;19.95;75.85
72857;BME280;61360;52.134;4.494;2022-08-04T02:45:55;101314.72;;;19.99;75.80
72857;BME280;61360;52.134;4.494;2022-08-04T02:48:25;101313.88;;;19.98;76.58
72857;BME280;61360;52.134;4.494;2022-08-04T02:50:54;101314.72;;;19.99;76.28
72857;BME280;61360;52.134;4.494;2022-08-04T02:53:25;101319.91;;;20.02;75.60
72857;BME280;61360;52.134;4.494;2022-08-04T02:55:56;101304.78;;;20.03;76.07
72857;BME280;61360;52.134;4.494;2022-08-04T02:58:31;101310.81;;;20.06;74.98
72857;BME280;61360;52.134;4.494;2022-08-04T03:01:00;101316.22;;;20.05;75.01
72857;BME280;61360;52.134;4.494;2022-08-04T03:06:41;101310.97;;;20.03;74.29
72857;BME280;61360;52.134;4.494;2022-08-04T03:33:57;101305.34;;;19.90;73.92
72857;BME280;61360;52.134;4.494;2022-08-04T03:51:33;101289.69;;;19.83;74.59
72857;BME280;61360;52.134;4.494;2022-08-04T03:57:26;101293.72;;;19.72;75.16
72857;BME280;61360;52.134;4.494;2022-08-04T04:00:30;101295.53;;;19.72;74.76
72857;BME280;61360;52.134;4.494;2022-08-04T04:12:56;101295.78;;;19.66;75.82
72857;BME280;61360;52.134;4.494;2022-08-04T04:16:04;101294.22;;;19.61;75.15
72857;BME280;61360;52.134;4.494;2022-08-04T04:25:24;101301.75;;;19.52;75.43
72857;BME280;61360;52.134;4.494;2022-08-04T04:39:54;101300.59;;;19.57;78.07
72857;BME280;61360;52.134;4.494;2022-08-04T04:51:41;101294.09;;;19.65;78.57
72857;BME280;61360;52.134;4.494;2022-08-04T04:54:40;101301.06;;;19.67;78.52
72857;BME280;61360;52.134;4.494;2022-08-04T04:57:17;101298.38;;;19.67;79.02
72857;BME280;61360;52.134;4.494;2022-08-04T05:00:05;101303.44;;;19.73;79.08
72857;BME280;61360;52.134;4.494;2022-08-04T05:14:35;101319.75;;;20.05;79.02
72857;BME280;61360;52.134;4.494;2022-08-04T05:17:19;101317.00;;;20.07;79.53
72857;BME280;61360;52.134;4.494;2022-08-04T05:20:52;101318.91;;;20.05;78.46
72857;BME280;61360;52.134;4.494;2022-08-04T05:23:15;101309.97;;;20.06;79.21
72857;BME280;61360;52.134;4.494;2022-08-04T05:26:06;101319.47;;;20.11;78.37
72857;BME280;61360;52.134;4.494;2022-08-04T05:28:42;101323.06;;;20.10;79.04
72857;BME280;61360;52.134;4.494;2022-08-04T05:31:32;101323.69;;;20.15;79.24
72857;BME280;61360;52.134;4.494;2022-08-04T05:34:19;101323.22;;;20.26;79.52
72857;BME280;61360;52.134;4.494;2022-08-04T05:36:52;101328.09;;;20.35;79.82
72857;BME280;61360;52.134;4.494;2022-08-04T05:39:30;101334.28;;;20.36;79.71
72857;BME280;61360;52.134;4.494;2022-08-04T05:42:10;101333.88;;;20.26;80.23
72857;BME280;61360;52.134;4.494;2022-08-04T05:44:39;101337.97;;;20.33;79.42
72857;BME280;61360;52.134;4.494;2022-08-04T05:47:10;101336.88;;;20.37;80.34
72857;BME280;61360;52.134;4.494;2022-08-04T05:49:39;101335.03;;;20.40;79.79
72857;BME280;61360;52.134;4.494;2022-08-04T05:52:09;101322.53;;;20.40;79.50
72857;BME280;61360;52.134;4.494;2022-08-04T05:54:37;101321.59;;;20.41;79.57
72857;BME280;61360;52.134;4.494;2022-08-04T05:57:06;101325.63;;;20.50;79.07
72857;BME280;61360;52.134;4.494;2022-08-04T05:59:37;101324.09;;;20.44;79.74
72857;BME280;61360;52.134;4.494;2022-08-04T06:02:08;101323.59;;;20.55;80.24
72857;BME280;61360;52.134;4.494;2022-08-04T06:04:39;101329.41;;;20.63;80.34
72857;BME280;61360;52.134;4.494;2022-08-04T06:07:08;101330.56;;;20.58;79.65
72857;BME280;61360;52.134;4.494;2022-08-04T06:09:38;101322.56;;;20.58;80.24
72857;BME280;61360;52.134;4.494;2022-08-04T06:14:47;101331.66;;;20.90;79.85
72857;BME280;61360;52.134;4.494;2022-08-04T06:17:25;101339.00;;;21.37;78.55
72857;BME280;61360;52.134;4.494;2022-08-04T06:20:07;101335.72;;;21.65;77.57
72857;BME280;61360;52.134;4.494;2022-08-04T06:22:39;101328.63;;;22.14;75.74
72857;BME280;61360;52.134;4.494;2022-08-04T06:25:10;101333.06;;;22.77;73.61
72857;BME280;61360;52.134;4.494;2022-08-04T06:27:42;101340.84;;;23.55;71.29
72857;BME280;61360;52.134;4.494;2022-08-04T06:30:10;101331.59;;;24.17;68.88
72857;BME280;61360;52.134;4.494;2022-08-04T06:32:41;101329.03;;;24.42;67.26
72857;BME280;61360;52.134;4.494;2022-08-04T06:35:17;101322.75;;;24.96;65.67
72857;BME280;61360;52.134;4.494;2022-08-04T06:37:45;101327.19;;;25.23;64.43
72857;BME280;61360;52.134;4.494;2022-08-04T06:40:15;101329.91;;;25.36;62.64
72857;BME280;61360;52.134;4.494;2022-08-04T06:42:44;101332.34;;;25.13;62.86
72857;BME280;61360;52.134;4.494;2022-08-04T06:45:13;101331.72;;;25.48;62.33
72857;BME280;61360;52.134;4.494;2022-08-04T06:47:43;101329.59;;;25.28;60.45
72857;BME280;61360;52.134;4.494;2022-08-04T06:50:11;101334.53;;;25.72;60.84
72857;BME280;61360;52.134;4.494;2022-08-04T06:52:38;101341.88;;;25.57;59.73
72857;BME280;61360;52.134;4.494;2022-08-04T06:55:06;101342.28;;;25.51;60.50
72857;BME280;61360;52.134;4.494;2022-08-04T06:57:34;101339.59;;;25.64;58.91
72857;BME280;61360;52.134;4.494;2022-08-04T07:00:04;101343.88;;;26.54;57.27
72857;BME280;61360;52.134;4.494;2022-08-04T07:02:48;101339.59;;;26.75;56.52
72857;BME280;61360;52.134;4.494;2022-08-04T07:05:18;101344.59;;;26.68;56.25
72857;BME280;61360;52.134;4.494;2022-08-04T07:07:46;101343.88;;;26.29;55.74
72857;BME280;61360;52.134;4.494;2022-08-04T07:10:15;101350.28;;;26.40;56.04
72857;BME280;61360;52.134;4.494;2022-08-04T07:12:44;101357.00;;;25.97;57.43
72857;BME280;61360;52.134;4.494;2022-08-04T07:15:11;101351.72;;;25.96;57.43
72857;BME280;61360;52.134;4.494;2022-08-04T07:17:40;101352.91;;;26.28;56.29
72857;BME280;61360;52.134;4.494;2022-08-04T07:20:08;101370.28;;;26.24;56.37
72857;BME280;61360;52.134;4.494;2022-08-04T07:22:36;101370.16;;;25.76;58.27
72857;BME280;61360;52.134;4.494;2022-08-04T07:25:08;101365.09;;;25.97;55.94
72857;BME280;61360;52.134;4.494;2022-08-04T07:27:35;101373.63;;;25.52;55.95
72857;BME280;61360;52.134;4.494;2022-08-04T07:30:04;101371.03;;;25.38;57.73
72857;BME280;61360;52.134;4.494;2022-08-04T07:32:31;101378.03;;;25.53;57.51
72857;BME280;61360;52.134;4.494;2022-08-04T07:35:00;101382.78;;;25.63;57.59
72857;BME280;61360;52.134;4.494;2022-08-04T07:37:27;101376.19;;;25.41;58.25
72857;BME280;61360;52.134;4.494;2022-08-04T07:39:54;101383.56;;;26.27;54.67
72857;BME280;61360;52.134;4.494;2022-08-04T07:42:21;101386.59;;;26.10;55.61
72857;BME280;61360;52.134;4.494;2022-08-04T07:44:48;101380.47;;;26.45;54.84
72857;BME280;61360;52.134;4.494;2022-08-04T07:47:15;101382.25;;;26.57;54.67
72857;BME280;61360;52.134;4.494;2022-08-04T07:49:42;101387.84;;;26.54;54.45
72857;BME280;61360;52.134;4.494;2022-08-04T07:52:10;101383.88;;;26.84;54.33
72857;BME280;61360;52.134;4.494;2022-08-04T07:54:38;101388.91;;;26.88;53.98
72857;BME280;61360;52.134;4.494;2022-08-04T07:57:05;101383.59;;;26.76;54.10
72857;BME280;61360;52.134;4.494;2022-08-04T07:59:34;101390.47;;;27.15;52.35
72857;BME280;61360;52.134;4.494;2022-08-04T08:02:01;101384.75;;;27.31;51.70
72857;BME280;61360;52.134;4.494;2022-08-04T08:04:29;101393.75;;;27.43;52.11
72857;BME280;61360;52.134;4.494;2022-08-04T08:06:57;101393.19;;;27.62;50.67
72857;BME280;61360;52.134;4.494;2022-08-04T08:09:24;101402.06;;;27.98;49.65
72857;BME280;61360;52.134;4.494;2022-08-04T08:11:52;101397.09;;;27.69;49.00
72857;BME280;61360;52.134;4.494;2022-08-04T08:14:21;101400.28;;;27.86;49.33
72857;BME280;61360;52.134;4.494;2022-08-04T08:16:48;101397.84;;;27.83;48.68
72857;BME280;61360;52.134;4.494;2022-08-04T08:19:14;101395.63;;;27.18;48.59
72857;BME280;61360;52.134;4.494;2022-08-04T08:21:46;101399.31;;;27.87;50.17
72857;BME280;61360;52.134;4.494;2022-08-04T08:24:15;101395.59;;;28.44;48.10
72857;BME280;61360;52.134;4.494;2022-08-04T08:26:42;101401.94;;;28.54;46.96
72857;BME280;61360;52.134;4.494;2022-08-04T08:29:09;101393.84;;;28.43;47.50
72857;BME280;61360;52.134;4.494;2022-08-04T08:31:37;101395.78;;;28.75;46.76
72857;BME280;61360;52.134;4.494;2022-08-04T08:34:04;101385.56;;;29.00;45.52
72857;BME280;61360;52.134;4.494;2022-08-04T08:36:38;101382.34;;;29.06;44.00
72857;BME280;61360;52.134;4.494;2022-08-04T08:54:24;101389.94;;;29.54;41.71
72857;BME280;61360;52.134;4.494;2022-08-04T08:57:16;101394.84;;;29.07;44.01
72857;BME280;61360;52.134;4.494;2022-08-04T09:08:49;101402.69;;;28.45;44.08
72857;BME280;61360;52.134;4.494;2022-08-04T09:11:23;101405.94;;;28.83;43.80
72857;BME280;61360;52.134;4.494;2022-08-04T09:13:59;101401.31;;;29.27;43.98
72857;BME280;61360;52.134;4.494;2022-08-04T09:16:37;101397.81;;;29.88;43.31
72857;BME280;61360;52.134;4.494;2022-08-04T09:22:53;101402.97;;;29.18;42.04
72857;BME280;61360;52.134;4.494;2022-08-04T09:25:39;101406.88;;;28.93;42.59
72857;BME280;61360;52.134;4.494;2022-08-04T09:28:42;101412.25;;;29.04;43.69
72857;BME280;61360;52.134;4.494;2022-08-04T09:31:21;101419.16;;;28.53;44.27
72857;BME280;61360;52.134;4.494;2022-08-04T09:39:26;101430.88;;;28.20;43.68
72857;BME280;61360;52.134;4.494;2022-08-04T09:47:46;101441.13;;;27.58;45.91
72857;BME280;61360;52.134;4.494;2022-08-04T09:56:33;101444.28;;;27.30;46.19
72857;BME280;61360;52.134;4.494;2022-08-04T09:59:28;101446.16;;;27.16;46.85
72857;BME280;61360;52.134;4.494;2022-08-04T10:02:06;101458.72;;;27.75;44.38
72857;BME280;61360;52.134;4.494;2022-08-04T10:04:38;101456.06;;;27.16;45.89
72857;BME280;61360;52.134;4.494;2022-08-04T10:19:37;101466.88;;;28.43;44.10
72857;BME280;61360;52.134;4.494;2022-08-04T10:25:02;101457.31;;;28.39;41.79
72857;BME280;61360;52.134;4.494;2022-08-04T10:27:51;101461.25;;;28.12;43.24
72857;BME280;61360;52.134;4.494;2022-08-04T10:30:23;101461.13;;;28.14;43.62
72857;BME280;61360;52.134;4.494;2022-08-04T10:33:10;101470.44;;;28.21;43.26
72857;BME280;61360;52.134;4.494;2022-08-04T10:35:56;101468.41;;;27.55;42.65
72857;BME280;61360;52.134;4.494;2022-08-04T10:38:35;101477.84;;;27.96;42.80
72857;BME280;61360;52.134;4.494;2022-08-04T10:41:31;101471.44;;;28.09;42.63
72857;BME280;61360;52.134;4.494;2022-08-04T10:44:37;101479.28;;;28.23;40.31
72857;BME280;61360;52.134;4.494;2022-08-04T10:47:19;101476.91;;;27.73;43.12
72857;BME280;61360;52.134;4.494;2022-08-04T10:49:54;101478.44;;;28.34;40.69
72857;BME280;61360;52.134;4.494;2022-08-04T10:52:35;101469.09;;;28.93;40.09
72857;BME280;61360;52.134;4.494;2022-08-04T10:55:31;101467.72;;;28.44;39.71
72857;BME280;61360;52.134;4.494;2022-08-04T10:58:04;101479.13;;;28.47;41.11
72857;BME280;61360;52.134;4.494;2022-08-04T11:00:38;101473.31;;;27.02;41.42
72857;BME280;61360;52.134;4.494;2022-08-04T11:03:27;101477.44;;;28.58;41.43
72857;BME280;61360;52.134;4.494;2022-08-04T11:06:00;101481.81;;;28.81;41.53
72857;BME280;61360;52.134;4.494;2022-08-04T11:08:50;101480.44;;;29.73;39.55
72857;BME280;61360;52.134;4.494;2022-08-04T11:11:30;101483.34;;;29.39;40.04
72857;BME280;61360;52.134;4.494;2022-08-04T11:14:03;101480.16;;;29.34;37.96
72857;BME280;61360;52.134;4.494;2022-08-04T11:17:09;101477.06;;;30.01;37.75
72857;BME280;61360;52.134;4.494;2022-08-04T11:27:28;101473.50;;;31.21;37.04
72857;BME280;61360;52.134;4.494;2022-08-04T11:30:18;101487.81;;;31.33;36.45
72857;BME280;61360;52.134;4.494;2022-08-04T11:33:04;101495.59;;;30.77;36.31
72857;BME280;61360;52.134;4.494;2022-08-04T11:36:19;101493.16;;;30.74;36.32
72857;BME280;61360;52.134;4.494;2022-08-04T11:39:11;101491.66;;;30.20;37.60
72857;BME280;61360;52.134;4.494;2022-08-04T11:41:57;101495.13;;;29.91;37.99
72857;BME280;61360;52.134;4.494;2022-08-04T11:44:35;101493.00;;;29.95;39.39
72857;BME280;62742;52.136;4.500;2022-08-04T11:47:14;101496.88;;;29.60;39.29
72857;BME280;62742;52.136;4.500;2022-08-04T11:50:16;101498.88;;;28.93;40.20
72857;BME280;62742;52.136;4.500;2022-08-04T11:52:47;101506.63;;;28.98;39.63
72857;BME280;62742;52.136;4.500;2022-08-04T11:55:19;101507.28;;;28.79;41.28
72857;BME280;62742;52.136;4.500;2022-08-04T11:57:48;101508.69;;;29.38;39.55
72857;BME280;62742;52.136;4.500;2022-08-04T12:00:17;101504.88;;;29.61;38.08
72857;BME280;62742;52.136;4.500;2022-08-04T12:03:31;101498.69;;;29.71;38.06
72857;BME280;62742;52.136;4.500;2022-08-04T12:06:19;101504.06;;;30.13;38.25
72857;BME280;62742;52.136;4.500;2022-08-04T12:12:19;101490.31;;;30.86;35.75
72857;BME280;62742;52.136;4.500;2022-08-04T12:20:56;101495.06;;;29.81;38.39
72857;BME280;62742;52.136;4.500;2022-08-04T12:23:35;101501.16;;;30.76;36.01
72857;BME280;62742;52.136;4.500;2022-08-04T12:26:07;101507.09;;;30.50;36.92
72857;BME280;62742;52.136;4.500;2022-08-04T12:28:43;101513.34;;;30.41;36.06
72857;BME280;62742;52.136;4.500;2022-08-04T12:31:20;101515.75;;;30.85;36.45
72857;BME280;62742;52.136;4.500;2022-08-04T12:34:05;101519.00;;;30.69;35.43
72857;BME280;62742;52.136;4.500;2022-08-04T12:36:52;101509.53;;;30.23;35.61
72857;BME280;62742;52.136;4.500;2022-08-04T12:39:27;101512.72;;;30.68;36.53
72857;BME280;62742;52.136;4.500;2022-08-04T12:41:58;101515.94;;;29.91;35.43
72857;BME280;62742;52.136;4.500;2022-08-04T12:44:39;101518.25;;;30.26;37.82
72857;BME280;62742;52.136;4.500;2022-08-04T12:47:10;101516.19;;;30.39;37.56
72857;BME280;62742;52.136;4.500;2022-08-04T12:49:42;101528.50;;;29.71;38.00
72857;BME280;62742;52.136;4.500;2022-08-04T12:52:13;101521.13;;;27.84;39.71
72857;BME280;62742;52.136;4.500;2022-08-04T12:54:45;101524.91;;;29.05;37.92
72857;BME280;62742;52.136;4.500;2022-08-04T12:57:17;101529.06;;;29.53;39.29
72857;BME280;62742;52.136;4.500;2022-08-04T12:59:45;101524.78;;;30.14;37.86
72857;BME280;62742;52.136;4.500;2022-08-04T13:02:23;101530.28;;;29.60;38.83
72857;BME280;62742;52.136;4.500;2022-08-04T13:04:58;101530.81;;;29.96;39.17
72857;BME280;62742;52.136;4.500;2022-08-04T13:07:35;101535.19;;;30.39;37.92
72857;BME280;62742;52.136;4.500;2022-08-04T13:10:14;101536.56;;;30.34;37.79
72857;BME280;62742;52.136;4.500;2022-08-04T13:12:56;101536.75;;;30.83;37.77
72857;BME280;62742;52.136;4.500;2022-08-04T13:15:26;101534.31;;;30.89;36.52
72857;BME280;62742;52.136;4.500;2022-08-04T13:18:07;101538.78;;;30.19;36.61
72857;BME280;62742;52.136;4.500;2022-08-04T13:20:37;101541.75;;;29.74;36.74
72857;BME280;62742;52.136;4.500;2022-08-04T13:23:14;101534.47;;;30.37;35.63
72857;BME280;62742;52.136;4.500;2022-08-04T13:25:45;101542.22;;;30.52;35.10
72857;BME280;62742;52.136;4.500;2022-08-04T13:28:19;101539.16;;;30.66;36.01
72857;BME280;62742;52.136;4.500;2022-08-04T13:30:53;101535.84;;;30.72;35.79
72857;BME280;62742;52.136;4.500;2022-08-04T13:33:35;101539.34;;;30.44;37.29
72857;BME280;62742;52.136;4.500;2022-08-04T13:36:06;101553.91;;;29.58;37.58
72857;BME280;62742;52.136;4.500;2022-08-04T13:38:43;101541.19;;;29.38;39.07
72857;BME280;62742;52.136;4.500;2022-08-04T13:41:34;101548.09;;;29.42;37.02
72857;BME280;62742;52.136;4.500;2022-08-04T13:44:08;101542.91;;;29.39;40.15
72857;BME280;62742;52.136;4.500;2022-08-04T13:46:48;101544.72;;;29.17;37.04
72857;BME280;62742;52.136;4.500;2022-08-04T13:49:18;101539.38;;;29.38;37.77
72857;BME280;62742;52.136;4.500;2022-08-04T13:51:53;101538.06;;;29.21;38.71
72857;BME280;62742;52.136;4.500;2022-08-04T13:54:22;101542.22;;;28.59;42.27
72857;BME280;62742;52.136;4.500;2022-08-04T13:56:57;101542.56;;;28.43;41.96
72857;BME280;62742;52.136;4.500;2022-08-04T13:59:32;101544.84;;;29.48;41.00
72857;BME280;62742;52.136;4.500;2022-08-04T14:02:08;101546.91;;;29.12;41.88
72857;BME280;62742;52.136;4.500;2022-08-04T14:04:53;101542.81;;;29.61;39.45
72857;BME280;62742;52.136;4.500;2022-08-04T14:07:24;101544.00;;;29.04;39.71
72857;BME280;62742;52.136;4.500;2022-08-04T14:09:52;101555.78;;;29.79;40.34
72857;BME280;62742;52.136;4.500;2022-08-04T14:12:19;101548.44;;;29.16;40.27
72857;BME280;62742;52.136;4.500;2022-08-04T14:14:48;101553.88;;;29.91;38.99
72857;BME280;62742;52.136;4.500;2022-08-04T14:17:18;101566.16;;;29.41;39.92
72857;BME280;62742;52.136;4.500;2022-08-04T14:30:35;101571.44;;;29.43;38.59
72857;BME280;62742;52.136;4.500;2022-08-04T14:33:03;101565.16;;;29.54;38.85
72857;BME280;62742;52.136;4.500;2022-08-04T14:35:36;101568.63;;;29.77;38.38
72857;BME280;62742;52.136;4.500;2022-08-04T14:38:06;101571.28;;;29.56;36.85
72857;BME280;62742;52.136;4.500;2022-08-04T14:40:36;101567.78;;;28.32;37.33
72857;BME280;62742;52.136;4.500;2022-08-04T14:43:08;101558.56;;;28.80;39.22
72857;BME280;62742;52.136;4.500;2022-08-04T14:45:37;101564.72;;;28.94;37.39
72857;BME280;62742;52.136;4.500;2022-08-04T14:48:13;101572.00;;;29.37;38.03
72857;BME280;62742;52.136;4.500;2022-08-04T14:50:47;101571.31;;;29.01;39.50
72857;BME280;62742;52.136;4.500;2022-08-04T14:53:22;101569.56;;;29.11;37.68
72857;BME280;62742;52.136;4.500;2022-08-04T14:55:59;101569.16;;;28.49;37.60
72857;BME280;62742;52.136;4.500;2022-08-04T14:58:28;101571.56;;;28.52;38.65
72857;BME280;62742;52.136;4.500;2022-08-04T15:00:59;101568.84;;;29.09;37.33
72857;BME280;62742;52.136;4.500;2022-08-04T15:03:28;101566.34;;;27.57;39.44
72857;BME280;62742;52.136;4.500;2022-08-04T15:05:59;101565.53;;;28.04;39.15
72857;BME280;62742;52.136;4.500;2022-08-04T15:08:26;101569.22;;;27.67;39.38
72857;BME280;62742;52.136;4.500;2022-08-04T15:10:57;101562.97;;;28.47;38.57
72857;BME280;62742;52.136;4.500;2022-08-04T15:13:28;101565.84;;;28.68;39.13
72857;BME280;62742;52.136;4.500;2022-08-04T15:15:57;101560.91;;;28.62;37.37
72857;BME280;62742;52.136;4.500;2022-08-04T15:18:24;101566.03;;;28.88;37.26
72857;BME280;62742;52.136;4.500;2022-08-04T15:20:56;101561.00;;;28.83;39.36
72857;BME280;62742;52.136;4.500;2022-08-04T15:23:24;101567.91;;;28.87;38.16
72857;BME280;62742;52.136;4.500;2022-08-04T15:25:53;101567.78;;;28.78;39.67
72857;BME280;62742;52.136;4.500;2022-08-04T15:28:26;101560.19;;;28.71;39.51
72857;BME280;62742;52.136;4.500;2022-08-04T15:30:57;101563.22;;;28.78;39.93
72857;BME280;62742;52.136;4.500;2022-08-04T15:33:29;101565.56;;;28.38;39.27
72857;BME280;62742;52.136;4.500;2022-08-04T15:36:20;101570.94;;;27.68;39.50
72857;BME280;62742;52.136;4.500;2022-08-04T15:42:14;101582.13;;;27.02;41.17
72857;BME280;62742;52.136;4.500;2022-08-04T15:45:45;101577.22;;;26.71;42.48
72857;BME280;62742;52.136;4.500;2022-08-04T15:50:29;101579.50;;;26.64;42.40
72857;BME280;62742;52.136;4.500;2022-08-04T15:55:40;101587.03;;;27.46;41.25
72857;BME280;62742;52.136;4.500;2022-08-04T15:58:11;101581.97;;;27.65;42.47
72857;BME280;62742;52.136;4.500;2022-08-04T16:19:48;101592.63;;;26.04;46.07
72857;BME280;62742;52.136;4.500;2022-08-04T16:22:51;101590.41;;;26.24;45.55
72857;BME280;62742;52.136;4.500;2022-08-04T16:25:53;101590.81;;;26.18;46.07
72857;BME280;62742;52.136;4.500;2022-08-04T16:31:10;101583.41;;;26.34;47.22
72857;BME280;62742;52.136;4.500;2022-08-04T16:33:38;101590.78;;;25.10;48.41
72857;BME280;62742;52.136;4.500;2022-08-04T16:36:11;101588.47;;;25.18;47.95
72857;BME280;62742;52.136;4.500;2022-08-04T16:39:00;101588.66;;;25.15;45.51
72857;BME280;62742;52.136;4.500;2022-08-04T16:41:41;101583.47;;;25.54;50.60
72857;BME280;62742;52.136;4.500;2022-08-04T16:44:31;101591.75;;;25.09;46.52
72857;BME280;62742;52.136;4.500;2022-08-04T16:47:03;101581.22;;;24.92;45.97
72857;BME280;62742;52.136;4.500;2022-08-04T16:49:32;101583.00;;;25.06;45.17
72857;BME280;62742;52.136;4.500;2022-08-04T16:52:04;101583.75;;;25.22;46.35
72857;BME280;62742;52.136;4.500;2022-08-04T16:54:34;101572.75;;;24.83;45.32
72857;BME280;62742;52.136;4.500;2022-08-04T16:57:08;101578.31;;;25.09;45.43
72857;BME280;62742;52.136;4.500;2022-08-04T16:59:36;101570.50;;;24.63;45.12
72857;BME280;62742;52.136;4.500;2022-08-04T17:02:03;101578.53;;;24.49;47.12
72857;BME280;62742;52.136;4.500;2022-08-04T17:04:34;101572.19;;;24.78;46.62
72857;BME280;62742;52.136;4.500;2022-08-04T17:07:04;101571.22;;;24.51;46.87
72857;BME280;62742;52.136;4.500;2022-08-04T17:09:34;101571.63;;;24.16;46.98
72857;BME280;62742;52.136;4.500;2022-08-04T17:12:00;101551.31;;;23.81;47.89
72857;BME280;62742;52.136;4.500;2022-08-04T17:14:29;101564.91;;;24.23;49.24
72857;BME280;62742;52.136;4.500;2022-08-04T17:16:59;101565.00;;;24.50;48.74
72857;BME280;62742;52.136;4.500;2022-08-04T17:19:27;101561.00;;;24.43;48.53
72857;BME280;62742;52.136;4.500;2022-08-04T17:21:56;101562.91;;;23.82;49.93
72857;BME280;62742;52.136;4.500;2022-08-04T17:24:30;101561.91;;;23.99;50.49
72857;BME280;62742;52.136;4.500;2022-08-04T17:27:04;101570.25;;;23.78;52.23
72857;BME280;62742;52.136;4.500;2022-08-04T17:29:33;101571.25;;;23.61;53.78
72857;BME280;62742;52.136;4.500;2022-08-04T17:32:00;101578.09;;;23.83;53.56
72857;BME280;62742;52.136;4.500;2022-08-04T17:34:30;101583.94;;;23.74;52.67
72857;BME280;62742;52.136;4.500;2022-08-04T17:37:01;101587.97;;;23.66;53.99
72857;BME280;62742;52.136;4.500;2022-08-04T17:39:28;101584.28;;;22.89;56.01
72857;BME280;62742;52.136;4.500;2022-08-04T17:41:58;101575.78;;;22.97;56.16
72857;BME280;62742;52.136;4.500;2022-08-04T17:44:35;101574.50;;;22.39;59.19
72857;BME280;62742;52.136;4.500;2022-08-04T17:47:18;101575.88;;;22.95;57.53
72857;BME280;62742;52.136;4.500;2022-08-04T17:49:47;101566.81;;;23.14;57.33
72857;BME280;62742;52.136;4.500;2022-08-04T17:52:20;101571.81;;;23.36;57.02
72857;BME280;62742;52.136;4.500;2022-08-04T17:54:57;101572.03;;;23.17;57.89